Time;durP1;ratioP1;P1;durP2;ratioP2;P2;SDS_P1;SDS_P2;PMS_P1;PMS_P2;Temp;Humidity;BMP_temperature;BMP_pressure;BME280_temperature;BME280_humidity;BME280_pressure;Samples;Min_cycle;Max_cycle;Signal;HPM_P1;HPM_P2
2022/10/09 00:00:35;;;;;;;29.93;18.30;;;6.90;99.90;;;;;;5058752;28;20377;-73
2022/10/09 00:03:01;;;;;;;30.02;16.05;;;6.90;99.90;;;;;;5058020;28;20386;-73
2022/10/09 00:05:27;;;;;;;25.15;14.20;;;7.00;99.90;;;;;;5059032;28;20385;-74
2022/10/09 00:07:53;;;;;;;26.73;15.68;;;6.90;99.90;;;;;;5059743;28;20415;-73
2022/10/09 00:10:19;;;;;;;24.67;13.20;;;7.00;99.90;;;;;;5060620;28;20409;-74
2022/10/09 00:12:45;;;;;;;22.85;14.48;;;7.10;99.90;;;;;;5060723;28;20392;-74
2022/10/09 00:15:10;;;;;;;22.08;13.82;;;7.50;99.90;;;;;;5060755;28;20382;-73
2022/10/09 00:17:36;;;;;;;23.50;13.47;;;7.60;99.90;;;;;;5060891;28;20404;-72
2022/10/09 00:20:02;;;;;;;22.57;12.73;;;7.70;99.90;;;;;;5060633;28;20548;-74
2022/10/09 00:22:28;;;;;;;29.08;14.38;;;7.50;99.90;;;;;;5060243;28;20404;-73
2022/10/09 00:24:53;;;;;;;26.43;13.17;;;7.40;99.90;;;;;;5058459;28;20386;-74
2022/10/09 00:27:21;;;;;;;30.80;17.47;;;7.30;99.90;;;;;;5058800;28;20400;-74
2022/10/09 00:29:47;;;;;;;26.33;13.80;;;7.10;99.90;;;;;;5059617;28;20389;-73
2022/10/09 00:32:13;;;;;;;26.55;14.05;;;7.00;99.90;;;;;;5060167;28;20393;-73
2022/10/09 00:34:38;;;;;;;18.65;11.25;;;7.00;99.90;;;;;;5058550;28;20450;-72
2022/10/09 00:37:04;;;;;;;21.98;13.00;;;7.00;99.90;;;;;;5056631;28;20432;-73
2022/10/09 00:39:29;;;;;;;24.23;13.18;;;7.10;99.90;;;;;;5057896;28;20385;-74
2022/10/09 00:41:55;;;;;;;25.77;13.30;;;7.10;99.90;;;;;;5057029;28;20421;-74
2022/10/09 00:44:53;;;;;;;25.40;13.05;;;7.00;99.90;;;;;;5060050;28;20396;-72
2022/10/09 00:47:45;;;;;;;27.13;14.10;;;6.90;99.90;;;;;;5059954;28;20397;-74
2022/10/09 00:50:37;;;;;;;27.45;16.60;;;6.80;99.90;;;;;;5059367;28;20464;-72
2022/10/09 00:53:02;;;;;;;32.33;18.48;;;6.80;99.90;;;;;;5058141;28;20406;-74
2022/10/09 00:55:30;;;;;;;26.77;14.77;;;6.70;99.90;;;;;;5058770;28;20385;-74
2022/10/09 00:57:57;;;;;;;21.90;13.18;;;6.80;99.90;;;;;;5059058;28;20404;-74
2022/10/09 01:00:25;;;;;;;21.45;12.23;;;6.70;99.90;;;;;;5059223;28;20381;-72
2022/10/09 01:02:51;;;;;;;24.05;14.25;;;6.80;99.90;;;;;;5057668;28;20389;-73
2022/10/09 01:05:17;;;;;;;20.70;12.45;;;6.80;99.90;;;;;;5058172;28;20906;-73
2022/10/09 01:07:52;;;;;;;25.30;12.65;;;6.70;99.90;;;;;;5059318;28;20419;-73
2022/10/09 01:10:56;;;;;;;28.00;13.82;;;6.70;99.90;;;;;;5058218;28;20401;-72
2022/10/09 01:13:26;;;;;;;25.00;13.70;;;6.60;99.90;;;;;;5059675;28;20900;-73
2022/10/09 01:16:00;;;;;;;22.23;12.00;;;6.60;99.90;;;;;;5058522;28;20507;-73
2022/10/09 01:18:38;;;;;;;25.27;12.68;;;6.60;99.90;;;;;;5056191;28;20408;-71
2022/10/09 01:21:21;;;;;;;20.45;13.02;;;6.60;99.90;;;;;;5053317;28;20402;-70
2022/10/09 01:23:46;;;;;;;25.35;12.90;;;6.60;99.90;;;;;;5052744;28;20408;-73
2022/10/09 01:26:52;;;;;;;23.67;12.87;;;6.50;99.90;;;;;;5050653;28;20397;-72
2022/10/09 01:29:20;;;;;;;26.73;14.70;;;6.50;99.90;;;;;;5037801;28;20382;-71
2022/10/09 01:31:48;;;;;;;30.10;14.93;;;6.60;99.90;;;;;;5032656;28;20462;-76
2022/10/09 01:34:16;;;;;;;39.08;19.48;;;6.60;99.90;;;;;;5039786;28;20390;-72
2022/10/09 01:36:43;;;;;;;29.08;15.40;;;6.60;99.90;;;;;;5053104;28;20409;-74
2022/10/09 01:39:13;;;;;;;29.80;18.08;;;6.60;99.90;;;;;;5063732;28;20870;-73
2022/10/09 01:41:39;;;;;;;28.27;15.47;;;6.60;99.90;;;;;;5061544;28;20381;-74
2022/10/09 01:44:34;;;;;;;26.10;12.87;;;6.60;99.90;;;;;;5057965;28;20388;-74
2022/10/09 01:47:00;;;;;;;19.58;13.05;;;6.70;99.90;;;;;;5054007;28;20401;-74
2022/10/09 01:49:35;;;;;;;29.08;14.20;;;6.70;99.90;;;;;;5054522;28;20403;-74
2022/10/09 01:52:30;;;;;;;20.75;12.82;;;6.60;99.90;;;;;;5053747;28;20923;-73
2022/10/09 01:55:02;;;;;;;25.65;14.95;;;6.60;99.90;;;;;;5055011;28;20385;-75
2022/10/09 01:57:47;;;;;;;24.92;14.68;;;6.50;99.90;;;;;;5053931;28;20448;-73
2022/10/09 02:00:13;;;;;;;24.27;12.43;;;6.50;99.90;;;;;;5054050;28;20386;-72
2022/10/09 02:02:41;;;;;;;19.83;11.40;;;6.50;99.90;;;;;;5053637;28;20892;-73
2022/10/09 02:05:12;;;;;;;25.60;13.70;;;6.40;99.90;;;;;;5054351;28;20927;-73
2022/10/09 02:07:38;;;;;;;32.13;17.52;;;6.50;99.90;;;;;;5054773;28;20409;-74
2022/10/09 02:10:06;;;;;;;23.50;13.40;;;6.40;99.90;;;;;;5055827;28;20381;-73
2022/10/09 02:12:36;;;;;;;28.35;16.35;;;6.50;99.90;;;;;;5055062;28;20435;-74
2022/10/09 02:15:03;;;;;;;31.98;16.02;;;6.50;99.90;;;;;;5054305;28;20381;-72
2022/10/09 02:17:32;;;;;;;17.50;12.00;;;6.40;99.90;;;;;;5055303;28;20522;-73
2022/10/09 02:20:07;;;;;;;22.85;13.35;;;6.40;99.90;;;;;;5054997;28;20377;-74
2022/10/09 02:22:34;;;;;;;26.57;13.70;;;6.40;99.90;;;;;;5054598;28;20484;-73
2022/10/09 02:25:04;;;;;;;26.20;14.50;;;6.40;99.90;;;;;;5053875;28;20791;-72
2022/10/09 02:27:31;;;;;;;21.35;12.10;;;6.40;99.90;;;;;;5053798;28;20383;-73
2022/10/09 02:29:58;;;;;;;20.30;11.88;;;6.40;99.90;;;;;;5052152;28;20400;-73
2022/10/09 02:32:24;;;;;;;17.17;11.77;;;6.40;99.90;;;;;;5052887;28;20763;-72
2022/10/09 02:34:50;;;;;;;21.67;13.15;;;6.40;99.90;;;;;;5051692;28;20431;-73
2022/10/09 02:37:16;;;;;;;24.40;14.00;;;6.40;99.90;;;;;;5052408;28;20409;-72
2022/10/09 02:39:42;;;;;;;30.02;14.40;;;6.50;99.90;;;;;;5053353;28;20469;-73
2022/10/09 02:42:08;;;;;;;24.20;12.83;;;6.50;99.90;;;;;;5053008;28;20489;-73
2022/10/09 02:44:34;;;;;;;25.65;13.02;;;6.50;99.90;;;;;;5052986;28;20388;-74
2022/10/09 02:46:59;;;;;;;27.90;16.08;;;6.50;99.90;;;;;;5053352;28;20749;-72
2022/10/09 02:49:25;;;;;;;24.20;14.37;;;6.40;99.90;;;;;;5053693;28;20388;-74
2022/10/09 02:51:50;;;;;;;23.27;13.18;;;6.40;99.90;;;;;;5053519;28;20751;-73
2022/10/09 02:54:16;;;;;;;33.05;17.80;;;6.40;99.90;;;;;;5058962;28;20386;-73
2022/10/09 02:56:41;;;;;;;21.38;12.98;;;6.40;99.90;;;;;;5057804;28;20410;-74
2022/10/09 02:59:07;;;;;;;24.42;13.70;;;6.40;99.90;;;;;;5052463;28;20390;-74
2022/10/09 03:01:33;;;;;;;27.00;14.82;;;6.40;99.90;;;;;;5051945;28;20381;-73
2022/10/09 03:03:59;;;;;;;27.53;15.30;;;6.40;99.90;;;;;;5052115;28;20476;-73
2022/10/09 03:06:27;;;;;;;27.70;14.27;;;6.50;99.90;;;;;;5051569;28;20377;-72
2022/10/09 03:08:54;;;;;;;25.92;15.50;;;6.50;99.90;;;;;;5051934;28;20902;-74
2022/10/09 03:11:22;;;;;;;26.88;15.32;;;6.50;99.90;;;;;;5051083;28;20408;-74
2022/10/09 03:13:48;;;;;;;26.08;14.75;;;6.50;99.90;;;;;;5051964;28;20496;-74
2022/10/09 03:16:19;;;;;;;29.05;15.70;;;6.40;99.90;;;;;;5051859;28;20847;-74
2022/10/09 03:18:45;;;;;;;26.55;15.60;;;6.50;99.90;;;;;;5052089;28;20450;-73
2022/10/09 03:21:13;;;;;;;39.67;15.50;;;6.40;99.90;;;;;;5051460;28;20386;-73
2022/10/09 03:23:39;;;;;;;29.83;13.40;;;6.40;99.90;;;;;;5051957;28;20472;-74
2022/10/09 03:26:07;;;;;;;21.67;11.87;;;6.50;99.90;;;;;;5051672;28;20481;-73
2022/10/09 03:28:39;;;;;;;23.17;11.73;;;6.60;99.90;;;;;;5052120;28;20385;-74
2022/10/09 03:31:05;;;;;;;18.10;11.70;;;6.60;99.90;;;;;;5051548;28;20482;-73
2022/10/09 03:33:31;;;;;;;28.03;15.40;;;6.50;99.90;;;;;;5052649;28;20378;-73
2022/10/09 03:35:56;;;;;;;24.38;13.40;;;6.50;99.90;;;;;;5052700;28;20782;-74
2022/10/09 03:38:22;;;;;;;24.90;13.00;;;6.50;99.90;;;;;;5052605;28;20408;-73
2022/10/09 03:40:47;;;;;;;21.63;12.60;;;6.60;99.90;;;;;;5053579;28;20431;-74
2022/10/09 03:43:13;;;;;;;24.67;14.20;;;6.50;99.90;;;;;;5055190;28;20444;-73
2022/10/09 03:45:39;;;;;;;23.60;14.05;;;6.50;99.90;;;;;;5057609;28;20393;-72
2022/10/09 03:48:06;;;;;;;20.48;12.00;;;6.40;99.90;;;;;;5065326;28;20800;-74
2022/10/09 03:50:31;;;;;;;25.38;12.02;;;6.50;99.90;;;;;;5077316;22;20491;-72
2022/10/09 03:52:57;;;;;;;26.63;14.47;;;6.50;99.90;;;;;;5073783;28;20471;-71
2022/10/09 03:55:22;;;;;;;20.73;12.13;;;6.50;99.90;;;;;;5074126;28;20376;-71
2022/10/09 03:57:48;;;;;;;25.60;14.43;;;6.40;99.90;;;;;;5074316;28;20494;-71
2022/10/09 04:00:14;;;;;;;27.93;14.77;;;6.40;99.90;;;;;;5073719;28;20759;-71
2022/10/09 04:02:39;;;;;;;29.30;14.00;;;6.40;99.90;;;;;;5073535;28;20740;-71
2022/10/09 04:05:05;;;;;;;32.30;14.50;;;6.30;99.90;;;;;;5073804;28;20856;-72
2022/10/09 04:07:31;;;;;;;24.48;12.93;;;6.30;99.90;;;;;;5073765;28;20392;-71
2022/10/09 04:09:56;;;;;;;26.17;14.48;;;6.30;99.90;;;;;;5073446;28;20910;-72
2022/10/09 04:12:22;;;;;;;21.23;13.20;;;6.30;99.90;;;;;;5073821;28;20935;-72
2022/10/09 04:14:47;;;;;;;23.48;12.70;;;6.20;99.90;;;;;;5073788;28;20406;-72
2022/10/09 04:17:13;;;;;;;23.05;11.38;;;6.20;99.90;;;;;;5073601;28;20402;-72
2022/10/09 04:19:39;;;;;;;23.15;12.15;;;6.20;99.90;;;;;;5073399;28;20392;-71
2022/10/09 04:22:04;;;;;;;30.80;12.68;;;6.20;99.90;;;;;;5073025;28;20375;-71
2022/10/09 04:24:30;;;;;;;25.73;13.40;;;6.20;99.90;;;;;;5073932;28;20459;-71
2022/10/09 04:26:55;;;;;;;24.02;12.15;;;6.30;99.90;;;;;;5073186;28;20412;-71
2022/10/09 04:29:21;;;;;;;27.33;13.38;;;6.30;99.90;;;;;;5073256;28;20395;-71
2022/10/09 04:31:47;;;;;;;26.13;13.90;;;6.20;99.90;;;;;;5071472;28;20387;-71
2022/10/09 04:34:13;;;;;;;21.87;12.20;;;6.20;99.90;;;;;;5073222;28;20426;-71
2022/10/09 04:36:38;;;;;;;31.77;13.15;;;6.10;99.90;;;;;;5072799;28;20867;-71
2022/10/09 04:39:04;;;;;;;28.98;15.35;;;6.20;99.90;;;;;;5072897;28;20475;-71
2022/10/09 04:41:29;;;;;;;26.40;13.98;;;6.20;99.90;;;;;;5072499;28;20375;-71
2022/10/09 04:43:56;;;;;;;23.75;12.35;;;6.20;99.90;;;;;;5072847;28;20474;-71
2022/10/09 04:46:22;;;;;;;22.55;12.75;;;6.20;99.90;;;;;;5076761;28;20384;-72
2022/10/09 04:48:48;;;;;;;33.13;16.60;;;6.20;99.90;;;;;;5079080;28;20380;-73
2022/10/09 04:51:15;;;;;;;25.83;14.98;;;6.30;99.90;;;;;;5075745;28;20474;-72
2022/10/09 04:53:41;;;;;;;29.50;14.27;;;6.20;99.90;;;;;;5072983;28;20387;-72
2022/10/09 04:56:11;;;;;;;24.10;13.80;;;6.20;99.90;;;;;;5072863;28;20383;-72
2022/10/09 04:58:38;;;;;;;18.23;12.27;;;6.20;99.90;;;;;;5072242;28;20399;-72
2022/10/09 05:01:10;;;;;;;23.60;12.57;;;6.10;99.90;;;;;;5072493;28;20463;-73
2022/10/09 05:03:36;;;;;;;32.30;17.35;;;6.10;99.90;;;;;;5072883;28;20408;-72
2022/10/09 05:06:05;;;;;;;30.43;13.43;;;6.10;99.90;;;;;;5072549;28;20805;-72
2022/10/09 05:08:31;;;;;;;26.92;13.07;;;6.10;99.90;;;;;;5072579;28;20379;-73
2022/10/09 05:11:02;;;;;;;31.67;15.00;;;6.10;99.90;;;;;;5071983;28;20380;-72
2022/10/09 05:13:29;;;;;;;28.00;13.77;;;6.10;99.90;;;;;;5072085;28;20390;-72
2022/10/09 05:15:55;;;;;;;22.33;12.70;;;6.10;99.90;;;;;;5072154;28;20387;-72
2022/10/09 05:18:20;;;;;;;26.25;14.07;;;6.10;99.90;;;;;;5072041;28;20391;-72
2022/10/09 05:20:46;;;;;;;36.85;17.17;;;6.10;99.90;;;;;;5071829;28;20394;-70
2022/10/09 05:23:11;;;;;;;23.25;13.63;;;6.10;99.90;;;;;;5078811;28;20406;-73
2022/10/09 05:25:37;;;;;;;26.80;13.32;;;6.20;99.90;;;;;;5079390;28;20391;-73
2022/10/09 05:28:03;;;;;;;27.83;14.45;;;6.10;99.90;;;;;;5078982;28;20398;-72
2022/10/09 05:30:29;;;;;;;22.48;12.95;;;6.10;99.90;;;;;;5072591;28;20442;-72
2022/10/09 05:32:54;;;;;;;25.50;14.33;;;6.10;99.90;;;;;;5071868;28;20383;-72
2022/10/09 05:35:20;;;;;;;28.80;14.43;;;6.00;99.90;;;;;;5072280;28;20383;-75
2022/10/09 05:37:45;;;;;;;30.50;13.90;;;6.00;99.90;;;;;;5072183;28;20765;-73
2022/10/09 05:40:11;;;;;;;22.50;14.00;;;6.00;99.90;;;;;;5072078;28;20868;-72
2022/10/09 05:42:36;;;;;;;31.80;16.40;;;6.10;99.90;;;;;;5070192;28;20885;-72
2022/10/09 05:45:02;;;;;;;26.33;14.00;;;6.00;99.90;;;;;;5071716;28;20478;-72
2022/10/09 05:47:31;;;;;;;24.52;13.85;;;6.00;99.90;;;;;;5071545;28;20744;-72
2022/10/09 05:49:56;;;;;;;29.77;15.15;;;6.00;99.90;;;;;;5071581;28;20379;-72
2022/10/09 05:52:22;;;;;;;22.95;12.43;;;6.00;99.90;;;;;;5071514;28;20890;-71
2022/10/09 05:54:49;;;;;;;29.90;16.92;;;6.10;99.90;;;;;;5071819;28;20403;-71
2022/10/09 05:57:14;;;;;;;25.10;13.40;;;6.10;99.90;;;;;;5071630;28;20391;-72
2022/10/09 05:59:40;;;;;;;24.02;13.27;;;6.10;99.90;;;;;;5070199;28;20390;-71
2022/10/09 06:02:05;;;;;;;31.00;16.85;;;6.10;99.90;;;;;;5071969;28;20380;-71
2022/10/09 06:04:31;;;;;;;23.73;11.98;;;6.20;99.90;;;;;;5070868;28;20782;-72
2022/10/09 06:06:56;;;;;;;25.05;13.88;;;6.20;99.90;;;;;;5071808;28;20394;-71
2022/10/09 06:09:24;;;;;;;22.02;11.70;;;6.20;99.90;;;;;;5070895;28;20475;-71
2022/10/09 06:11:50;;;;;;;25.80;13.15;;;6.40;99.90;;;;;;5070979;28;20460;-71
2022/10/09 06:14:16;;;;;;;23.40;12.20;;;6.30;99.90;;;;;;5071285;28;20890;-71
2022/10/09 06:16:43;;;;;;;23.95;13.40;;;6.30;99.90;;;;;;5071075;28;20396;-71
2022/10/09 06:19:14;;;;;;;26.30;11.70;;;6.30;99.90;;;;;;5071511;28;20390;-71
2022/10/09 06:21:40;;;;;;;27.48;11.68;;;6.30;99.90;;;;;;5070891;28;20432;-71
2022/10/09 06:24:06;;;;;;;19.10;10.40;;;6.30;99.90;;;;;;5071209;28;20380;-71
2022/10/09 06:26:33;;;;;;;18.70;10.98;;;6.40;99.90;;;;;;5071036;28;20376;-71
2022/10/09 06:29:00;;;;;;;19.77;11.98;;;6.60;99.90;;;;;;5070831;28;20387;-71
2022/10/09 06:31:29;;;;;;;23.08;12.40;;;6.60;99.90;;;;;;5071036;28;20384;-72
2022/10/09 06:33:57;;;;;;;22.13;11.60;;;6.60;99.90;;;;;;5071111;28;20459;-71
2022/10/09 06:36:25;;;;;;;24.30;12.00;;;6.60;99.90;;;;;;5071107;28;20375;-72
2022/10/09 06:38:52;;;;;;;25.02;13.07;;;6.60;99.90;;;;;;5070985;28;20864;-72
2022/10/09 06:41:20;;;;;;;17.00;10.38;;;6.70;99.90;;;;;;5070913;28;20414;-71
2022/10/09 06:43:51;;;;;;;24.75;11.20;;;6.80;99.90;;;;;;5070899;28;20710;-71
2022/10/09 06:46:18;;;;;;;20.55;10.52;;;6.80;99.90;;;;;;5071104;28;20388;-70
2022/10/09 06:48:44;;;;;;;23.38;10.75;;;6.90;99.90;;;;;;5069746;28;20422;-71
2022/10/09 06:51:14;;;;;;;19.52;9.98;;;7.00;99.90;;;;;;5070446;28;20889;-71
2022/10/09 06:53:49;;;;;;;23.70;10.65;;;7.10;99.90;;;;;;5070539;28;20384;-71
2022/10/09 06:56:16;;;;;;;20.85;11.73;;;7.30;99.90;;;;;;5072878;28;20717;-72
2022/10/09 06:58:42;;;;;;;24.13;12.40;;;7.30;99.90;;;;;;5074671;28;20384;-73
2022/10/09 07:01:14;;;;;;;18.23;10.45;;;7.40;99.90;;;;;;5081465;28;20387;-74
2022/10/09 07:03:42;;;;;;;17.02;9.82;;;7.40;99.90;;;;;;5078671;28;20383;-73
2022/10/09 07:06:18;;;;;;;21.25;10.75;;;7.50;99.90;;;;;;5077564;28;21124;-73
2022/10/09 07:08:49;;;;;;;27.95;11.55;;;7.60;99.90;;;;;;5074008;28;20807;-73
2022/10/09 07:11:21;;;;;;;22.88;11.50;;;7.80;99.90;;;;;;5073232;28;20380;-73
2022/10/09 07:13:49;;;;;;;23.13;10.95;;;7.80;99.90;;;;;;5073330;28;20388;-72
2022/10/09 07:16:19;;;;;;;20.65;12.43;;;7.90;99.90;;;;;;5072421;28;20375;-72
2022/10/09 07:18:45;;;;;;;17.92;8.50;;;8.00;99.90;;;;;;5072097;28;20447;-73
2022/10/09 07:21:10;;;;;;;22.57;9.20;;;8.10;99.90;;;;;;5072032;28;20474;-72
2022/10/09 07:23:36;;;;;;;17.13;8.40;;;8.20;99.90;;;;;;5075835;28;20371;-73
2022/10/09 07:26:12;;;;;;;17.03;9.30;;;8.30;99.90;;;;;;5075767;28;20379;-74
2022/10/09 07:28:38;;;;;;;14.73;8.15;;;8.40;99.90;;;;;;5076527;28;20391;-72
2022/10/09 07:31:04;;;;;;;15.25;8.63;;;8.50;99.90;;;;;;5075414;28;20388;-73
2022/10/09 07:33:30;;;;;;;19.48;8.40;;;8.60;99.90;;;;;;5076679;28;20423;-72
2022/10/09 07:35:59;;;;;;;19.98;9.05;;;8.70;98.10;;;;;;5076389;28;20433;-71
2022/10/09 07:38:25;;;;;;;18.48;8.27;;;8.80;99.80;;;;;;5077430;28;20407;-73
2022/10/09 07:40:52;;;;;;;16.80;7.60;;;8.90;88.70;;;;;;5075318;28;20387;-72
2022/10/09 07:43:19;;;;;;;13.40;6.93;;;9.00;87.00;;;;;;5076966;28;20744;-72
2022/10/09 07:45:45;;;;;;;15.10;7.65;;;9.10;83.90;;;;;;5077395;28;20505;-71
2022/10/09 07:48:11;;;;;;;15.25;8.13;;;9.30;81.60;;;;;;5077524;28;20395;-73
2022/10/09 07:50:37;;;;;;;16.30;6.60;;;9.30;80.70;;;;;;5077986;28;20883;-72
2022/10/09 07:53:03;;;;;;;14.80;8.20;;;9.50;78.10;;;;;;5077891;28;20390;-73
2022/10/09 07:55:28;;;;;;;12.30;7.60;;;9.50;78.00;;;;;;5077113;28;20462;-72
2022/10/09 07:57:54;;;;;;;16.43;6.70;;;9.60;77.50;;;;;;5077315;28;20558;-72
2022/10/09 08:00:19;;;;;;;13.63;7.77;;;9.70;74.80;;;;;;5077844;28;20418;-71
2022/10/09 08:02:45;;;;;;;16.03;7.03;;;9.80;73.40;;;;;;5076875;28;20372;-73
2022/10/09 08:05:10;;;;;;;16.30;6.80;;;10.00;70.90;;;;;;5077049;28;20522;-71
2022/10/09 08:07:36;;;;;;;14.20;6.85;;;10.10;71.70;;;;;;5076898;28;20376;-73
2022/10/09 08:10:02;;;;;;;15.65;6.78;;;10.10;71.30;;;;;;5076892;28;20481;-72
2022/10/09 08:12:28;;;;;;;16.40;7.28;;;10.10;70.60;;;;;;5076262;28;20395;-72
2022/10/09 08:14:53;;;;;;;13.30;6.73;;;10.20;69.70;;;;;;5076383;28;20458;-73
2022/10/09 08:17:19;;;;;;;14.03;6.87;;;10.30;69.40;;;;;;5075980;28;20444;-72
2022/10/09 08:19:44;;;;;;;14.88;6.88;;;10.40;67.90;;;;;;5076795;28;20387;-73
2022/10/09 08:22:13;;;;;;;13.57;6.20;;;10.60;67.40;;;;;;5074430;28;20425;-72
2022/10/09 08:24:38;;;;;;;14.93;6.93;;;10.80;66.30;;;;;;5076962;28;20384;-72
2022/10/09 08:27:04;;;;;;;12.07;6.43;;;10.90;64.40;;;;;;5075851;28;20388;-72
2022/10/09 08:29:30;;;;;;;16.15;7.38;;;11.00;63.30;;;;;;5075809;28;20415;-73
2022/10/09 08:31:55;;;;;;;21.50;6.53;;;11.00;63.90;;;;;;5074001;28;20864;-73
2022/10/09 08:34:21;;;;;;;14.30;5.23;;;11.20;61.50;;;;;;5075908;28;20419;-73
2022/10/09 08:36:47;;;;;;;12.45;5.78;;;11.30;58.30;;;;;;5075238;28;20392;-72
2022/10/09 08:39:13;;;;;;;12.03;5.70;;;11.50;58.10;;;;;;5076162;28;20388;-73
2022/10/09 08:41:46;;;;;;;13.07;6.38;;;11.60;57.70;;;;;;5074980;28;20386;-73
2022/10/09 08:44:44;;;;;;;17.00;6.07;;;11.70;57.30;;;;;;5074674;28;20388;-73
2022/10/09 08:47:12;;;;;;;14.80;6.40;;;11.70;56.30;;;;;;5070514;28;20441;-73
2022/10/09 08:49:44;;;;;;;14.52;5.25;;;11.80;56.50;;;;;;5074623;28;20407;-73
2022/10/09 08:52:44;;;;;;;14.52;5.35;;;11.90;53.50;;;;;;5074210;28;20395;-73
2022/10/09 08:55:23;;;;;;;12.02;4.93;;;12.00;52.40;;;;;;5065348;28;20387;-73
2022/10/09 08:57:52;;;;;;;12.57;5.30;;;12.10;52.40;;;;;;5074111;28;20453;-71
2022/10/09 09:00:21;;;;;;;10.15;5.80;;;12.20;52.20;;;;;;5074173;28;20391;-74
2022/10/09 09:03:31;;;;;;;11.15;5.30;;;12.30;52.00;;;;;;5074473;28;20380;-73
2022/10/09 09:06:10;;;;;;;12.70;6.45;;;12.50;50.80;;;;;;5069157;28;20391;-73
2022/10/09 09:08:50;;;;;;;23.98;8.35;;;12.60;50.60;;;;;;5074801;28;20740;-75
2022/10/09 09:11:39;;;;;;;12.27;5.28;;;12.70;50.00;;;;;;5079539;28;20921;-73
2022/10/09 09:14:32;;;;;;;13.07;5.10;;;12.80;47.80;;;;;;5080128;28;20395;-74
2022/10/09 09:17:18;;;;;;;12.60;5.18;;;13.00;46.90;;;;;;5080139;28;20721;-74
2022/10/09 09:20:18;;;;;;;12.65;5.40;;;13.10;46.10;;;;;;5079875;28;20383;-72
2022/10/09 09:22:47;;;;;;;12.75;4.80;;;13.20;46.10;;;;;;5079181;28;20380;-72
2022/10/09 09:25:27;;;;;;;11.40;5.20;;;13.40;45.10;;;;;;5081239;28;20686;-73
2022/10/09 09:27:56;;;;;;;13.70;4.45;;;13.40;45.20;;;;;;5079318;28;20388;-73
2022/10/09 09:30:27;;;;;;;11.52;4.65;;;13.60;43.80;;;;;;5077234;28;20390;-73
2022/10/09 09:33:16;;;;;;;15.10;5.20;;;13.70;42.10;;;;;;5075858;28;20395;-73
2022/10/09 09:35:59;;;;;;;10.65;4.88;;;13.80;41.70;;;;;;5072942;28;20391;-73
2022/10/09 09:38:25;;;;;;;10.65;4.65;;;13.90;41.80;;;;;;5074915;28;20406;-73
2022/10/09 09:40:52;;;;;;;12.35;5.22;;;13.90;41.30;;;;;;5074003;28;20490;-72
2022/10/09 09:43:23;;;;;;;10.60;4.80;;;14.00;41.20;;;;;;5074421;28;20514;-72
2022/10/09 09:45:55;;;;;;;9.82;4.32;;;14.10;39.50;;;;;;5072874;28;20900;-73
2022/10/09 09:48:23;;;;;;;9.23;4.90;;;14.20;39.20;;;;;;5074177;28;20408;-73
2022/10/09 09:50:52;;;;;;;11.70;4.40;;;14.40;40.30;;;;;;5075154;28;20396;-72
2022/10/09 09:53:38;;;;;;;9.43;3.88;;;14.40;38.10;;;;;;5070956;28;20419;-70
2022/10/09 09:56:05;;;;;;;8.50;4.50;;;14.50;36.40;;;;;;5071843;28;20413;-72
2022/10/09 09:58:52;;;;;;;17.13;5.70;;;14.50;36.60;;;;;;5071530;28;20975;-71
2022/10/09 10:01:29;;;;;;;10.45;4.35;;;14.60;36.20;;;;;;5071565;28;20375;-71
2022/10/09 10:04:00;;;;;;;8.55;4.25;;;14.70;35.90;;;;;;5072297;28;20414;-74
2022/10/09 10:06:28;;;;;;;8.65;4.03;;;14.70;35.50;;;;;;5072264;28;20454;-72
2022/10/09 10:09:15;;;;;;;10.65;4.55;;;14.90;34.50;;;;;;5071491;28;20384;-72
2022/10/09 10:11:46;;;;;;;9.10;3.90;;;14.90;33.50;;;;;;5071800;28;20876;-74
2022/10/09 10:14:14;;;;;;;6.97;3.80;;;14.90;32.80;;;;;;5072358;28;20375;-72
2022/10/09 10:16:40;;;;;;;10.55;4.10;;;15.00;31.80;;;;;;5070141;28;20417;-74
2022/10/09 10:19:28;;;;;;;8.25;4.43;;;15.10;32.10;;;;;;5071461;28;20542;-72
2022/10/09 10:21:59;;;;;;;8.90;4.55;;;15.10;31.30;;;;;;5072498;28;20733;-72
2022/10/09 10:24:31;;;;;;;7.95;3.70;;;15.00;32.00;;;;;;5071576;28;20391;-71
2022/10/09 10:27:31;;;;;;;12.15;4.40;;;15.10;31.30;;;;;;5071705;28;20949;-73
2022/10/09 10:30:03;;;;;;;10.77;4.10;;;15.20;31.20;;;;;;5071072;28;20418;-72
2022/10/09 10:32:40;;;;;;;12.70;4.70;;;15.20;31.10;;;;;;5069241;28;20427;-71
2022/10/09 10:35:15;;;;;;;10.48;4.40;;;15.30;30.80;;;;;;5071201;28;20794;-71
2022/10/09 10:38:09;;;;;;;9.13;4.32;;;15.30;30.50;;;;;;5070413;28;20431;-72
2022/10/09 10:41:00;;;;;;;8.00;4.20;;;15.40;29.50;;;;;;5070789;28;20387;-72
2022/10/09 10:43:51;;;;;;;7.35;4.00;;;15.40;30.00;;;;;;5070511;28;20391;-71
2022/10/09 10:46:28;;;;;;;9.10;3.60;;;15.40;30.70;;;;;;5070834;28;20463;-71
2022/10/09 10:48:53;;;;;;;12.57;4.50;;;15.60;29.50;;;;;;5070748;28;20376;-73
2022/10/09 10:51:30;;;;;;;12.13;3.88;;;15.60;30.40;;;;;;5070293;28;20768;-71
2022/10/09 10:53:58;;;;;;;7.68;3.40;;;15.70;28.90;;;;;;5071312;28;20380;-71
2022/10/09 10:56:29;;;;;;;8.50;3.65;;;15.70;28.30;;;;;;5073380;28;20806;-72
2022/10/09 10:59:21;;;;;;;10.95;4.32;;;15.80;29.30;;;;;;5074560;28;20891;-71
2022/10/09 11:02:08;;;;;;;7.97;3.72;;;15.90;28.40;;;;;;5072901;28;20423;-73
2022/10/09 11:04:43;;;;;;;9.93;4.00;;;16.00;27.60;;;;;;5075044;28;20371;-73
2022/10/09 11:07:12;;;;;;;8.15;4.10;;;16.10;28.10;;;;;;5074478;28;20382;-72
2022/10/09 11:09:38;;;;;;;10.10;3.67;;;16.10;27.60;;;;;;5074547;28;20725;-72
2022/10/09 11:12:18;;;;;;;9.57;3.33;;;16.20;25.70;;;;;;5074359;28;20418;-72
2022/10/09 11:14:59;;;;;;;6.07;3.10;;;16.20;26.00;;;;;;5074482;28;20391;-73
2022/10/09 11:17:25;;;;;;;8.25;3.05;;;16.20;25.30;;;;;;5075001;28;20395;-72
2022/10/09 11:20:07;;;;;;;10.23;3.50;;;16.30;25.20;;;;;;5074772;28;20453;-72
2022/10/09 11:23:03;;;;;;;8.40;3.00;;;16.40;26.50;;;;;;5074837;28;20372;-72
2022/10/09 11:25:49;;;;;;;16.05;4.00;;;16.40;25.40;;;;;;5075400;28;20376;-73
2022/10/09 11:28:24;;;;;;;6.35;3.08;;;16.40;24.50;;;;;;5075472;28;20380;-74
2022/10/09 11:30:57;;;;;;;6.32;3.08;;;16.60;24.60;;;;;;5075197;28;20433;-72
2022/10/09 11:33:33;;;;;;;8.05;3.47;;;16.60;24.00;;;;;;5075692;28;20415;-73
2022/10/09 11:36:25;;;;;;;5.72;3.00;;;16.60;23.80;;;;;;5075435;28;20444;-74
2022/10/09 11:39:01;;;;;;;9.25;2.95;;;16.60;22.70;;;;;;5076129;28;20399;-74
2022/10/09 11:41:29;;;;;;;10.33;2.83;;;16.70;22.30;;;;;;5075685;28;20372;-74
2022/10/09 11:44:19;;;;;;;14.85;3.47;;;16.70;22.50;;;;;;5075542;28;20759;-74
2022/10/09 11:46:51;;;;;;;9.87;3.13;;;16.70;21.50;;;;;;5074686;28;21087;-74
2022/10/09 11:49:38;;;;;;;7.30;3.90;;;16.80;21.70;;;;;;5073300;28;20875;-73
2022/10/09 11:52:06;;;;;;;8.98;2.45;;;16.80;21.40;;;;;;5074763;28;20391;-74
2022/10/09 11:54:33;;;;;;;10.07;4.40;;;16.90;21.20;;;;;;5075300;28;20406;-76
2022/10/09 11:57:02;;;;;;;7.50;2.70;;;16.90;21.30;;;;;;5074828;28;20415;-73
2022/10/09 11:59:35;;;;;;;6.20;2.67;;;16.90;20.30;;;;;;5074175;28;20852;-72
2022/10/09 12:02:22;;;;;;;7.55;2.70;;;16.90;19.70;;;;;;5073554;28;20837;-72
2022/10/09 12:04:48;;;;;;;9.38;3.47;;;16.90;19.40;;;;;;5073866;28;20475;-72
2022/10/09 12:07:35;;;;;;;6.45;3.15;;;16.90;20.00;;;;;;5073327;28;20470;-73
2022/10/09 12:10:08;;;;;;;7.80;2.92;;;16.90;20.20;;;;;;5073660;28;20718;-73
2022/10/09 12:12:37;;;;;;;7.38;3.05;;;17.00;19.40;;;;;;5073769;28;20470;-72
2022/10/09 12:15:23;;;;;;;11.60;3.95;;;17.10;19.60;;;;;;5074010;28;20380;-72
2022/10/09 12:17:49;;;;;;;8.40;3.50;;;17.10;20.30;;;;;;5073204;28;20429;-72
2022/10/09 12:20:22;;;;;;;12.38;3.08;;;17.20;19.60;;;;;;5073647;28;20384;-73
2022/10/09 12:22:55;;;;;;;5.53;2.80;;;17.20;19.20;;;;;;5073863;28;20378;-71
2022/10/09 12:25:39;;;;;;;6.10;3.08;;;17.10;18.60;;;;;;5073734;28;20467;-73
2022/10/09 12:28:13;;;;;;;7.70;2.85;;;17.20;19.30;;;;;;5074497;28;20380;-73
2022/10/09 12:30:40;;;;;;;5.40;2.50;;;17.20;18.70;;;;;;5074704;28;20399;-72
2022/10/09 12:33:22;;;;;;;7.30;3.10;;;17.20;19.00;;;;;;5082304;28;20387;-72
2022/10/09 12:35:59;;;;;;;6.25;2.70;;;17.30;18.70;;;;;;5080841;28;20391;-72
2022/10/09 12:38:28;;;;;;;7.75;2.80;;;17.30;18.00;;;;;;5082278;28;20476;-73
2022/10/09 12:40:59;;;;;;;6.23;2.73;;;17.40;17.90;;;;;;5080666;28;20380;-73
2022/10/09 12:43:24;;;;;;;7.05;2.63;;;17.40;18.40;;;;;;5080781;28;20717;-72
2022/10/09 12:45:52;;;;;;;6.10;3.20;;;17.40;18.10;;;;;;5079548;28;20405;-72
2022/10/09 12:48:20;;;;;;;7.47;3.08;;;17.60;18.50;;;;;;5078359;28;20387;-73
2022/10/09 12:50:46;;;;;;;9.20;4.50;;;17.50;18.10;;;;;;5080265;28;20529;-73
2022/10/09 12:53:15;;;;;;;7.00;2.60;;;17.60;18.00;;;;;;5079420;28;20883;-73
2022/10/09 12:55:44;;;;;;;10.43;3.50;;;17.60;17.80;;;;;;5077472;28;20380;-73